sensor_id;sensor_type;location;lat;lon;timestamp;P1;durP1;ratioP1;P2;durP2;ratioP2
22622;SDS011;11478;51.094;7.030;2023-02-01T00:01:29;43.80;;;20.58;;
22622;SDS011;11478;51.094;7.030;2023-02-01T00:03:56;46.67;;;20.15;;
22622;SDS011;11478;51.094;7.030;2023-02-01T00:06:22;41.50;;;20.20;;
22622;SDS011;11478;51.094;7.030;2023-02-01T00:11:37;47.38;;;19.25;;
22622;SDS011;11478;51.094;7.030;2023-02-01T00:14:04;49.55;;;19.38;;
22622;SDS011;11478;51.094;7.030;2023-02-01T00:16:30;43.35;;;17.88;;
22622;SDS011;11478;51.094;7.030;2023-02-01T00:19:05;47.17;;;18.05;;
22622;SDS011;11478;51.094;7.030;2023-02-01T00:21:33;51.17;;;20.15;;
22622;SDS011;11478;51.094;7.030;2023-02-01T00:24:05;47.85;;;20.85;;
22622;SDS011;11478;51.094;7.030;2023-02-01T00:29:02;49.47;;;19.60;;
22622;SDS011;11478;51.094;7.030;2023-02-01T00:31:30;47.85;;;20.25;;
22622;SDS011;11478;51.094;7.030;2023-02-01T00:34:14;47.15;;;18.10;;
22622;SDS011;11478;51.094;7.030;2023-02-01T00:36:41;44.67;;;16.65;;
22622;SDS011;11478;51.094;7.030;2023-02-01T00:39:09;51.15;;;16.27;;
22622;SDS011;11478;51.094;7.030;2023-02-01T00:41:35;43.42;;;16.27;;
22622;SDS011;11478;51.094;7.030;2023-02-01T00:44:02;39.00;;;14.52;;
22622;SDS011;11478;51.094;7.030;2023-02-01T00:46:28;43.28;;;14.90;;
22622;SDS011;11478;51.094;7.030;2023-02-01T00:48:56;32.20;;;13.13;;
22622;SDS011;11478;51.094;7.030;2023-02-01T00:51:23;32.55;;;14.15;;
22622;SDS011;11478;51.094;7.030;2023-02-01T00:53:52;35.33;;;13.30;;
22622;SDS011;11478;51.094;7.030;2023-02-01T00:56:19;31.75;;;10.77;;
22622;SDS011;11478;51.094;7.030;2023-02-01T00:58:45;31.52;;;10.32;;
22622;SDS011;11478;51.094;7.030;2023-02-01T01:01:18;33.60;;;11.00;;
22622;SDS011;11478;51.094;7.030;2023-02-01T01:03:53;26.63;;;10.60;;
22622;SDS011;11478;51.094;7.030;2023-02-01T01:06:25;23.75;;;8.55;;
22622;SDS011;11478;51.094;7.030;2023-02-01T01:08:54;36.38;;;10.65;;
22622;SDS011;11478;51.094;7.030;2023-02-01T01:11:25;30.55;;;9.27;;
22622;SDS011;11478;51.094;7.030;2023-02-01T01:13:56;32.40;;;8.75;;
22622;SDS011;11478;51.094;7.030;2023-02-01T01:16:24;29.60;;;8.55;;
22622;SDS011;11478;51.094;7.030;2023-02-01T01:18:51;33.45;;;8.15;;
22622;SDS011;11478;51.094;7.030;2023-02-01T01:21:18;32.05;;;8.95;;
22622;SDS011;11478;51.094;7.030;2023-02-01T01:23:44;24.77;;;8.25;;
22622;SDS011;11478;51.094;7.030;2023-02-01T01:26:15;29.02;;;7.82;;
22622;SDS011;11478;51.094;7.030;2023-02-01T01:28:43;26.58;;;7.20;;
22622;SDS011;11478;51.094;7.030;2023-02-01T01:31:09;24.73;;;8.00;;
22622;SDS011;11478;51.094;7.030;2023-02-01T01:33:37;30.92;;;8.93;;
22622;SDS011;11478;51.094;7.030;2023-02-01T01:36:06;26.58;;;9.15;;
22622;SDS011;11478;51.094;7.030;2023-02-01T01:38:36;35.38;;;8.40;;
22622;SDS011;11478;51.094;7.030;2023-02-01T01:41:03;31.08;;;8.90;;
22622;SDS011;11478;51.094;7.030;2023-02-01T01:46:25;31.92;;;8.05;;
22622;SDS011;11478;51.094;7.030;2023-02-01T01:49:16;27.60;;;7.75;;
22622;SDS011;11478;51.094;7.030;2023-02-01T01:54:22;20.33;;;5.40;;
22622;SDS011;11478;51.094;7.030;2023-02-01T01:56:53;21.55;;;5.75;;
22622;SDS011;11478;51.094;7.030;2023-02-01T01:59:23;24.33;;;5.22;;
22622;SDS011;11478;51.094;7.030;2023-02-01T02:01:50;25.73;;;5.53;;
22622;SDS011;11478;51.094;7.030;2023-02-01T02:04:17;24.60;;;5.13;;
22622;SDS011;11478;51.094;7.030;2023-02-01T02:07:26;20.08;;;4.65;;
22622;SDS011;11478;51.094;7.030;2023-02-01T02:09:37;24.98;;;5.20;;
22622;SDS011;11478;51.094;7.030;2023-02-01T02:12:03;26.88;;;5.05;;
22622;SDS011;11478;51.094;7.030;2023-02-01T02:14:29;28.27;;;4.82;;
22622;SDS011;11478;51.094;7.030;2023-02-01T02:22:53;23.58;;;4.35;;
22622;SDS011;11478;51.094;7.030;2023-02-01T02:25:40;20.50;;;4.72;;
22622;SDS011;11478;51.094;7.030;2023-02-01T02:48:24;22.88;;;4.57;;
22622;SDS011;11478;51.094;7.030;2023-02-01T02:51:13;27.40;;;5.43;;
22622;SDS011;11478;51.094;7.030;2023-02-01T02:57:24;26.08;;;5.82;;
22622;SDS011;11478;51.094;7.030;2023-02-01T03:03:04;20.60;;;4.75;;
22622;SDS011;11478;51.094;7.030;2023-02-01T03:05:50;23.85;;;5.03;;
22622;SDS011;11478;51.094;7.030;2023-02-01T03:13:48;26.23;;;5.07;;
22622;SDS011;11478;51.094;7.030;2023-02-01T03:21:59;21.25;;;4.43;;
22622;SDS011;11478;51.094;7.030;2023-02-01T03:27:27;26.27;;;4.75;;
22622;SDS011;11478;51.094;7.030;2023-02-01T03:35:44;24.55;;;4.90;;
22622;SDS011;11478;51.094;7.030;2023-02-01T03:44:09;20.48;;;4.90;;
22622;SDS011;11478;51.094;7.030;2023-02-01T03:49:41;24.80;;;5.30;;
22622;SDS011;11478;51.094;7.030;2023-02-01T03:52:13;25.90;;;5.43;;
22622;SDS011;11478;51.094;7.030;2023-02-01T03:54:43;26.80;;;5.55;;
22622;SDS011;11478;51.094;7.030;2023-02-01T03:57:12;22.85;;;4.88;;
22622;SDS011;11478;51.094;7.030;2023-02-01T03:59:43;26.25;;;5.70;;
22622;SDS011;11478;51.094;7.030;2023-02-01T04:02:10;22.13;;;5.25;;
22622;SDS011;11478;51.094;7.030;2023-02-01T04:04:46;26.70;;;6.10;;
22622;SDS011;11478;51.094;7.030;2023-02-01T04:07:11;24.40;;;5.30;;
22622;SDS011;11478;51.094;7.030;2023-02-01T04:09:38;21.27;;;4.75;;
22622;SDS011;11478;51.094;7.030;2023-02-01T04:12:04;23.63;;;5.22;;
22622;SDS011;11478;51.094;7.030;2023-02-01T04:14:30;28.90;;;6.05;;
22622;SDS011;11478;51.094;7.030;2023-02-01T04:16:56;22.98;;;5.55;;
22622;SDS011;11478;51.094;7.030;2023-02-01T04:19:36;26.73;;;6.60;;
22622;SDS011;11478;51.094;7.030;2023-02-01T04:22:01;28.42;;;7.72;;
22622;SDS011;11478;51.094;7.030;2023-02-01T04:24:27;24.65;;;6.32;;
22622;SDS011;11478;51.094;7.030;2023-02-01T04:26:53;29.27;;;5.75;;
22622;SDS011;11478;51.094;7.030;2023-02-01T04:29:33;26.00;;;5.82;;
22622;SDS011;11478;51.094;7.030;2023-02-01T04:31:59;23.90;;;5.25;;
22622;SDS011;11478;51.094;7.030;2023-02-01T04:37:13;27.67;;;5.18;;
22622;SDS011;11478;51.094;7.030;2023-02-01T04:39:50;27.08;;;4.85;;
22622;SDS011;11478;51.094;7.030;2023-02-01T04:42:16;21.75;;;4.32;;
22622;SDS011;11478;51.094;7.030;2023-02-01T04:44:42;26.60;;;4.75;;
22622;SDS011;11478;51.094;7.030;2023-02-01T04:47:08;28.10;;;4.93;;
22622;SDS011;11478;51.094;7.030;2023-02-01T04:49:40;24.70;;;4.95;;
22622;SDS011;11478;51.094;7.030;2023-02-01T04:52:06;21.42;;;4.50;;
22622;SDS011;11478;51.094;7.030;2023-02-01T04:54:36;25.77;;;4.38;;
22622;SDS011;11478;51.094;7.030;2023-02-01T04:57:02;23.55;;;4.53;;
22622;SDS011;11478;51.094;7.030;2023-02-01T04:59:28;30.08;;;5.40;;
22622;SDS011;11478;51.094;7.030;2023-02-01T05:01:53;22.73;;;4.80;;
22622;SDS011;11478;51.094;7.030;2023-02-01T05:04:19;32.08;;;5.07;;
22622;SDS011;11478;51.094;7.030;2023-02-01T05:06:45;26.08;;;4.30;;
22622;SDS011;11478;51.094;7.030;2023-02-01T05:09:11;22.02;;;4.50;;
22622;SDS011;11478;51.094;7.030;2023-02-01T05:11:37;21.67;;;4.45;;
22622;SDS011;11478;51.094;7.030;2023-02-01T05:14:21;24.65;;;4.85;;
22622;SDS011;11478;51.094;7.030;2023-02-01T05:16:47;24.45;;;4.85;;
22622;SDS011;11478;51.094;7.030;2023-02-01T05:19:14;23.33;;;5.40;;
22622;SDS011;11478;51.094;7.030;2023-02-01T05:21:42;24.17;;;4.20;;
22622;SDS011;11478;51.094;7.030;2023-02-01T05:24:08;25.17;;;4.88;;
22622;SDS011;11478;51.094;7.030;2023-02-01T05:26:45;30.05;;;5.28;;
22622;SDS011;11478;51.094;7.030;2023-02-01T05:31:43;29.40;;;5.05;;
22622;SDS011;11478;51.094;7.030;2023-02-01T05:34:16;25.38;;;4.97;;
22622;SDS011;11478;51.094;7.030;2023-02-01T05:36:42;27.10;;;4.63;;
22622;SDS011;11478;51.094;7.030;2023-02-01T05:39:11;24.50;;;5.18;;
22622;SDS011;11478;51.094;7.030;2023-02-01T05:41:37;23.23;;;7.13;;
22622;SDS011;11478;51.094;7.030;2023-02-01T05:44:04;24.83;;;5.65;;
22622;SDS011;11478;51.094;7.030;2023-02-01T05:46:32;26.35;;;5.97;;
22622;SDS011;11478;51.094;7.030;2023-02-01T05:48:59;33.15;;;6.20;;
22622;SDS011;11478;51.094;7.030;2023-02-01T05:51:25;29.77;;;5.72;;
22622;SDS011;11478;51.094;7.030;2023-02-01T05:53:52;29.40;;;7.25;;
22622;SDS011;11478;51.094;7.030;2023-02-01T05:56:21;24.92;;;4.65;;
22622;SDS011;11478;51.094;7.030;2023-02-01T05:58:48;30.38;;;6.35;;
22622;SDS011;11478;51.094;7.030;2023-02-01T06:01:13;36.97;;;10.98;;
22622;SDS011;11478;51.094;7.030;2023-02-01T06:03:40;39.03;;;12.38;;
22622;SDS011;11478;51.094;7.030;2023-02-01T06:06:06;29.13;;;7.25;;
22622;SDS011;11478;51.094;7.030;2023-02-01T06:08:33;29.65;;;5.78;;
22622;SDS011;11478;51.094;7.030;2023-02-01T06:11:05;39.28;;;11.23;;
22622;SDS011;11478;51.094;7.030;2023-02-01T06:13:31;31.98;;;9.20;;
22622;SDS011;11478;51.094;7.030;2023-02-01T06:15:58;33.78;;;8.50;;
22622;SDS011;11478;51.094;7.030;2023-02-01T06:18:24;34.28;;;10.77;;
22622;SDS011;11478;51.094;7.030;2023-02-01T06:20:59;34.58;;;7.97;;
22622;SDS011;11478;51.094;7.030;2023-02-01T06:23:25;33.58;;;4.85;;
22622;SDS011;11478;51.094;7.030;2023-02-01T06:25:58;26.17;;;5.28;;
22622;SDS011;11478;51.094;7.030;2023-02-01T06:28:26;28.77;;;8.95;;
22622;SDS011;11478;51.094;7.030;2023-02-01T06:30:55;32.78;;;6.63;;
22622;SDS011;11478;51.094;7.030;2023-02-01T06:33:20;31.40;;;8.40;;
22622;SDS011;11478;51.094;7.030;2023-02-01T06:35:46;31.70;;;5.22;;
22622;SDS011;11478;51.094;7.030;2023-02-01T06:38:12;29.83;;;5.63;;
22622;SDS011;11478;51.094;7.030;2023-02-01T06:40:39;27.20;;;5.20;;
22622;SDS011;11478;51.094;7.030;2023-02-01T06:43:07;26.92;;;5.63;;
22622;SDS011;11478;51.094;7.030;2023-02-01T06:45:34;27.05;;;5.95;;
22622;SDS011;11478;51.094;7.030;2023-02-01T06:48:00;27.85;;;5.13;;
22622;SDS011;11478;51.094;7.030;2023-02-01T06:50:26;31.10;;;5.15;;
22622;SDS011;11478;51.094;7.030;2023-02-01T06:52:52;23.90;;;4.78;;
22622;SDS011;11478;51.094;7.030;2023-02-01T06:55:19;30.35;;;4.63;;
22622;SDS011;11478;51.094;7.030;2023-02-01T06:57:45;30.92;;;5.53;;
22622;SDS011;11478;51.094;7.030;2023-02-01T07:00:11;30.70;;;5.43;;
22622;SDS011;11478;51.094;7.030;2023-02-01T07:02:37;25.75;;;4.82;;
22622;SDS011;11478;51.094;7.030;2023-02-01T07:05:04;26.58;;;4.97;;
22622;SDS011;11478;51.094;7.030;2023-02-01T07:07:33;27.80;;;4.95;;
22622;SDS011;11478;51.094;7.030;2023-02-01T07:12:34;31.67;;;5.18;;
22622;SDS011;11478;51.094;7.030;2023-02-01T07:15:00;26.50;;;5.68;;
22622;SDS011;11478;51.094;7.030;2023-02-01T07:17:32;24.85;;;4.93;;
22622;SDS011;11478;51.094;7.030;2023-02-01T07:19:57;31.13;;;5.10;;
22622;SDS011;11478;51.094;7.030;2023-02-01T07:22:26;26.58;;;5.97;;
22622;SDS011;11478;51.094;7.030;2023-02-01T07:24:52;22.88;;;6.10;;
22622;SDS011;11478;51.094;7.030;2023-02-01T07:27:19;25.83;;;6.47;;
22622;SDS011;11478;51.094;7.030;2023-02-01T07:29:46;27.85;;;5.78;;
22622;SDS011;11478;51.094;7.030;2023-02-01T07:32:12;37.15;;;8.50;;
22622;SDS011;11478;51.094;7.030;2023-02-01T07:34:38;26.73;;;5.88;;
22622;SDS011;11478;51.094;7.030;2023-02-01T07:37:04;30.95;;;7.30;;
22622;SDS011;11478;51.094;7.030;2023-02-01T07:39:30;37.25;;;7.03;;
22622;SDS011;11478;51.094;7.030;2023-02-01T07:44:58;36.40;;;9.50;;
22622;SDS011;11478;51.094;7.030;2023-02-01T07:50:23;31.45;;;8.05;;
22622;SDS011;11478;51.094;7.030;2023-02-01T07:55:23;29.85;;;5.85;;
22622;SDS011;11478;51.094;7.030;2023-02-01T07:57:50;30.60;;;6.68;;
22622;SDS011;11478;51.094;7.030;2023-02-01T08:00:15;35.28;;;9.32;;
22622;SDS011;11478;51.094;7.030;2023-02-01T08:03:03;30.42;;;5.80;;
22622;SDS011;11478;51.094;7.030;2023-02-01T08:05:29;28.30;;;5.82;;
22622;SDS011;11478;51.094;7.030;2023-02-01T08:07:56;34.80;;;6.55;;
22622;SDS011;11478;51.094;7.030;2023-02-01T08:10:24;35.33;;;6.03;;
22622;SDS011;11478;51.094;7.030;2023-02-01T08:12:50;33.58;;;6.45;;
22622;SDS011;11478;51.094;7.030;2023-02-01T08:15:17;27.80;;;5.55;;
22622;SDS011;11478;51.094;7.030;2023-02-01T08:17:47;25.48;;;5.68;;
22622;SDS011;11478;51.094;7.030;2023-02-01T08:20:14;33.53;;;7.70;;
22622;SDS011;11478;51.094;7.030;2023-02-01T08:22:40;25.83;;;4.75;;
22622;SDS011;11478;51.094;7.030;2023-02-01T08:25:07;27.48;;;5.32;;
22622;SDS011;11478;51.094;7.030;2023-02-01T08:27:33;24.42;;;4.97;;
22622;SDS011;11478;51.094;7.030;2023-02-01T08:30:00;21.83;;;4.38;;
22622;SDS011;11478;51.094;7.030;2023-02-01T08:32:26;27.40;;;5.00;;
22622;SDS011;11478;51.094;7.030;2023-02-01T08:34:53;27.27;;;5.28;;
22622;SDS011;11478;51.094;7.030;2023-02-01T08:37:19;27.02;;;5.32;;
22622;SDS011;11478;51.094;7.030;2023-02-01T08:39:48;29.33;;;5.18;;
22622;SDS011;11478;51.094;7.030;2023-02-01T08:42:15;21.73;;;5.18;;
22622;SDS011;11478;51.094;7.030;2023-02-01T08:47:42;24.15;;;5.05;;
22622;SDS011;11478;51.094;7.030;2023-02-01T08:53:08;27.55;;;5.45;;
22622;SDS011;11478;51.094;7.030;2023-02-01T08:55:36;36.97;;;7.65;;
22622;SDS011;11478;51.094;7.030;2023-02-01T08:58:02;31.83;;;6.43;;
22622;SDS011;11478;51.094;7.030;2023-02-01T09:00:28;26.70;;;6.30;;
22622;SDS011;11478;51.094;7.030;2023-02-01T09:02:54;27.13;;;5.38;;
22622;SDS011;11478;51.094;7.030;2023-02-01T09:05:21;25.70;;;5.32;;
22622;SDS011;11478;51.094;7.030;2023-02-01T09:07:51;27.30;;;5.75;;
22622;SDS011;11478;51.094;7.030;2023-02-01T09:10:17;23.02;;;4.85;;
22622;SDS011;11478;51.094;7.030;2023-02-01T09:12:43;23.30;;;5.10;;
22622;SDS011;11478;51.094;7.030;2023-02-01T09:15:09;25.75;;;5.45;;
22622;SDS011;11478;51.094;7.030;2023-02-01T09:17:36;34.60;;;5.28;;
22622;SDS011;11478;51.094;7.030;2023-02-01T09:20:02;25.92;;;4.90;;
22622;SDS011;11478;51.094;7.030;2023-02-01T09:22:30;27.60;;;5.10;;
22622;SDS011;11478;51.094;7.030;2023-02-01T09:24:55;26.42;;;4.50;;
22622;SDS011;11478;51.094;7.030;2023-02-01T09:27:22;20.48;;;4.88;;
22622;SDS011;11478;51.094;7.030;2023-02-01T09:29:48;22.00;;;5.70;;
22622;SDS011;11478;51.094;7.030;2023-02-01T09:32:18;28.75;;;5.05;;
22622;SDS011;11478;51.094;7.030;2023-02-01T09:34:44;28.88;;;5.45;;
22622;SDS011;11478;51.094;7.030;2023-02-01T09:37:14;28.00;;;5.43;;
22622;SDS011;11478;51.094;7.030;2023-02-01T09:39:40;26.33;;;4.50;;
22622;SDS011;11478;51.094;7.030;2023-02-01T09:44:59;28.17;;;4.85;;
22622;SDS011;11478;51.094;7.030;2023-02-01T09:47:54;24.15;;;5.25;;
22622;SDS011;11478;51.094;7.030;2023-02-01T09:50:30;31.23;;;5.55;;
22622;SDS011;11478;51.094;7.030;2023-02-01T09:56:05;22.48;;;5.03;;
22622;SDS011;11478;51.094;7.030;2023-02-01T09:58:36;24.20;;;4.68;;
22622;SDS011;11478;51.094;7.030;2023-02-01T10:01:38;26.80;;;4.90;;
22622;SDS011;11478;51.094;7.030;2023-02-01T10:04:07;31.63;;;6.20;;
22622;SDS011;11478;51.094;7.030;2023-02-01T10:25:51;33.95;;;5.75;;
22622;SDS011;11478;51.094;7.030;2023-02-01T10:28:20;23.52;;;5.50;;
22622;SDS011;11478;51.094;7.030;2023-02-01T10:30:49;28.65;;;5.75;;
22622;SDS011;11478;51.094;7.030;2023-02-01T10:39:12;29.77;;;6.00;;
22622;SDS011;11478;51.094;7.030;2023-02-01T10:41:40;29.65;;;6.03;;
22622;SDS011;11478;51.094;7.030;2023-02-01T10:44:11;26.75;;;6.43;;
22622;SDS011;11478;51.094;7.030;2023-02-01T10:46:46;28.95;;;7.03;;
22622;SDS011;11478;51.094;7.030;2023-02-01T10:52:36;29.95;;;6.32;;
22622;SDS011;11478;51.094;7.030;2023-02-01T10:55:34;24.77;;;6.95;;
22622;SDS011;11478;51.094;7.030;2023-02-01T10:58:18;29.80;;;6.22;;
22622;SDS011;11478;51.094;7.030;2023-02-01T11:08:57;26.92;;;6.35;;
22622;SDS011;11478;51.094;7.030;2023-02-01T11:14:32;27.10;;;6.13;;
22622;SDS011;11478;51.094;7.030;2023-02-01T11:17:12;26.92;;;5.65;;
22622;SDS011;11478;51.094;7.030;2023-02-01T11:19:45;26.92;;;5.88;;
22622;SDS011;11478;51.094;7.030;2023-02-01T11:22:15;23.13;;;5.28;;
22622;SDS011;11478;51.094;7.030;2023-02-01T11:24:44;24.05;;;5.55;;
22622;SDS011;11478;51.094;7.030;2023-02-01T11:27:17;34.65;;;8.95;;
22622;SDS011;11478;51.094;7.030;2023-02-01T11:29:47;31.30;;;6.18;;
22622;SDS011;11478;51.094;7.030;2023-02-01T11:32:16;30.83;;;7.68;;
22622;SDS011;11478;51.094;7.030;2023-02-01T11:34:49;41.40;;;11.77;;
22622;SDS011;11478;51.094;7.030;2023-02-01T11:37:38;27.85;;;7.13;;
22622;SDS011;11478;51.094;7.030;2023-02-01T11:43:27;22.45;;;5.45;;
22622;SDS011;11478;51.094;7.030;2023-02-01T11:45:33;25.15;;;4.68;;
22622;SDS011;11478;51.094;7.030;2023-02-01T11:48:15;25.55;;;5.30;;
22622;SDS011;11478;51.094;7.030;2023-02-01T11:51:02;21.88;;;5.13;;
22622;SDS011;11478;51.094;7.030;2023-02-01T12:31:29;20.13;;;4.57;;
22622;SDS011;11478;51.094;7.030;2023-02-01T12:39:30;19.08;;;4.50;;
22622;SDS011;11478;51.094;7.030;2023-02-01T12:42:17;29.88;;;4.63;;
22622;SDS011;11478;51.094;7.030;2023-02-01T12:44:55;17.38;;;4.50;;
22622;SDS011;11478;51.094;7.030;2023-02-01T13:05:20;21.30;;;4.63;;
22622;SDS011;11478;51.094;7.030;2023-02-01T13:11:09;21.95;;;4.35;;
22622;SDS011;11478;51.094;7.030;2023-02-01T13:16:35;18.70;;;4.05;;
22622;SDS011;11478;51.094;7.030;2023-02-01T13:22:19;20.52;;;3.90;;
22622;SDS011;11478;51.094;7.030;2023-02-01T13:24:52;21.33;;;4.45;;
22622;SDS011;11478;51.094;7.030;2023-02-01T13:27:23;20.25;;;4.32;;
22622;SDS011;11478;51.094;7.030;2023-02-01T13:29:57;20.08;;;4.10;;
22622;SDS011;11478;51.094;7.030;2023-02-01T13:42:34;26.83;;;5.32;;
22622;SDS011;11478;51.094;7.030;2023-02-01T13:44:46;17.88;;;3.65;;
22622;SDS011;11478;51.094;7.030;2023-02-01T13:49:49;23.23;;;3.90;;
22622;SDS011;11478;51.094;7.030;2023-02-01T13:52:39;19.40;;;4.15;;
22622;SDS011;11478;51.094;7.030;2023-02-01T13:57:41;19.08;;;3.92;;
22622;SDS011;11478;51.094;7.030;2023-02-01T14:09:05;17.67;;;3.15;;
22622;SDS011;11478;51.094;7.030;2023-02-01T14:11:32;16.05;;;3.53;;
22622;SDS011;11478;51.094;7.030;2023-02-01T14:17:31;20.30;;;4.00;;
22622;SDS011;11478;51.094;7.030;2023-02-01T14:19:34;22.88;;;3.70;;
22622;SDS011;11478;51.094;7.030;2023-02-01T14:22:00;24.15;;;4.10;;
22622;SDS011;11478;51.094;7.030;2023-02-01T14:24:54;18.85;;;4.30;;
22622;SDS011;11478;51.094;7.030;2023-02-01T14:27:24;24.40;;;3.85;;
22622;SDS011;11478;51.094;7.030;2023-02-01T14:29:59;18.98;;;3.70;;
22622;SDS011;11478;51.094;7.030;2023-02-01T14:32:39;18.40;;;3.55;;
22622;SDS011;11478;51.094;7.030;2023-02-01T14:35:18;16.52;;;3.95;;
22622;SDS011;11478;51.094;7.030;2023-02-01T14:37:59;19.10;;;4.40;;
22622;SDS011;11478;51.094;7.030;2023-02-01T14:40:31;20.63;;;3.50;;
22622;SDS011;11478;51.094;7.030;2023-02-01T14:43:00;25.05;;;3.58;;
22622;SDS011;11478;51.094;7.030;2023-02-01T14:58:36;19.42;;;3.50;;
22622;SDS011;11478;51.094;7.030;2023-02-01T15:01:31;15.27;;;3.67;;
22622;SDS011;11478;51.094;7.030;2023-02-01T15:04:08;17.63;;;3.70;;
22622;SDS011;11478;51.094;7.030;2023-02-01T15:06:42;16.33;;;3.78;;
22622;SDS011;11478;51.094;7.030;2023-02-01T15:14:48;19.15;;;3.95;;
22622;SDS011;11478;51.094;7.030;2023-02-01T15:17:35;19.98;;;3.35;;
22622;SDS011;11478;51.094;7.030;2023-02-01T15:20:02;23.45;;;3.70;;
22622;SDS011;11478;51.094;7.030;2023-02-01T15:22:40;16.48;;;4.18;;
22622;SDS011;11478;51.094;7.030;2023-02-01T15:25:25;15.25;;;3.60;;
22622;SDS011;11478;51.094;7.030;2023-02-01T15:27:53;21.30;;;3.88;;
22622;SDS011;11478;51.094;7.030;2023-02-01T15:30:21;15.02;;;3.13;;
22622;SDS011;11478;51.094;7.030;2023-02-01T15:32:52;19.70;;;4.07;;
22622;SDS011;11478;51.094;7.030;2023-02-01T15:35:43;21.45;;;4.30;;
22622;SDS011;11478;51.094;7.030;2023-02-01T15:38:45;17.77;;;4.65;;
22622;SDS011;11478;51.094;7.030;2023-02-01T15:46:10;17.15;;;3.83;;
22622;SDS011;11478;51.094;7.030;2023-02-01T15:48:45;19.63;;;5.95;;
22622;SDS011;11478;51.094;7.030;2023-02-01T15:51:24;21.23;;;3.65;;
22622;SDS011;11478;51.094;7.030;2023-02-01T15:56:23;18.55;;;3.88;;
22622;SDS011;11478;51.094;7.030;2023-02-01T16:01:40;19.70;;;4.28;;
22622;SDS011;11478;51.094;7.030;2023-02-01T16:07:01;21.90;;;4.28;;
22622;SDS011;11478;51.094;7.030;2023-02-01T16:12:44;46.47;;;17.25;;
22622;SDS011;11478;51.094;7.030;2023-02-01T16:15:17;19.08;;;4.15;;
22622;SDS011;11478;51.094;7.030;2023-02-01T16:17:45;18.98;;;3.58;;
22622;SDS011;11478;51.094;7.030;2023-02-01T16:20:11;19.80;;;3.47;;
22622;SDS011;11478;51.094;7.030;2023-02-01T16:22:38;25.02;;;3.85;;
22622;SDS011;11478;51.094;7.030;2023-02-01T16:25:05;17.08;;;4.20;;
22622;SDS011;11478;51.094;7.030;2023-02-01T16:27:34;19.73;;;4.03;;
22622;SDS011;11478;51.094;7.030;2023-02-01T16:30:00;21.25;;;4.50;;
22622;SDS011;11478;51.094;7.030;2023-02-01T16:32:26;15.75;;;3.63;;
22622;SDS011;11478;51.094;7.030;2023-02-01T16:34:52;23.90;;;4.25;;
22622;SDS011;11478;51.094;7.030;2023-02-01T16:37:19;22.50;;;4.07;;
22622;SDS011;11478;51.094;7.030;2023-02-01T16:39:47;18.73;;;3.95;;
22622;SDS011;11478;51.094;7.030;2023-02-01T16:42:15;17.15;;;3.60;;
22622;SDS011;11478;51.094;7.030;2023-02-01T16:44:44;20.05;;;4.10;;
22622;SDS011;11478;51.094;7.030;2023-02-01T16:47:17;20.52;;;3.70;;
22622;SDS011;11478;51.094;7.030;2023-02-01T16:49:45;27.73;;;4.75;;
22622;SDS011;11478;51.094;7.030;2023-02-01T16:52:16;18.65;;;4.18;;
22622;SDS011;11478;51.094;7.030;2023-02-01T16:54:45;26.42;;;5.57;;
22622;SDS011;11478;51.094;7.030;2023-02-01T16:57:13;23.10;;;6.25;;
22622;SDS011;11478;51.094;7.030;2023-02-01T16:59:42;19.23;;;4.50;;
22622;SDS011;11478;51.094;7.030;2023-02-01T17:02:22;21.25;;;4.70;;
22622;SDS011;11478;51.094;7.030;2023-02-01T17:04:48;19.38;;;5.40;;
22622;SDS011;11478;51.094;7.030;2023-02-01T17:07:16;21.00;;;4.70;;
22622;SDS011;11478;51.094;7.030;2023-02-01T17:09:43;26.55;;;6.45;;
22622;SDS011;11478;51.094;7.030;2023-02-01T17:14:58;22.38;;;6.15;;
22622;SDS011;11478;51.094;7.030;2023-02-01T17:17:33;21.80;;;4.25;;
22622;SDS011;11478;51.094;7.030;2023-02-01T17:20:05;19.85;;;3.90;;
22622;SDS011;11478;51.094;7.030;2023-02-01T17:22:31;24.10;;;7.85;;
22622;SDS011;11478;51.094;7.030;2023-02-01T17:24:58;25.70;;;6.38;;
22622;SDS011;11478;51.094;7.030;2023-02-01T17:27:24;21.83;;;5.82;;
22622;SDS011;11478;51.094;7.030;2023-02-01T17:29:53;27.52;;;5.90;;
22622;SDS011;11478;51.094;7.030;2023-02-01T17:32:22;25.02;;;5.32;;
22622;SDS011;11478;51.094;7.030;2023-02-01T17:34:53;17.70;;;4.07;;
22622;SDS011;11478;51.094;7.030;2023-02-01T17:37:27;27.48;;;6.47;;
22622;SDS011;11478;51.094;7.030;2023-02-01T17:39:57;20.77;;;5.93;;
22622;SDS011;11478;51.094;7.030;2023-02-01T17:42:24;21.17;;;4.40;;
22622;SDS011;11478;51.094;7.030;2023-02-01T17:44:53;22.15;;;4.18;;
22622;SDS011;11478;51.094;7.030;2023-02-01T17:47:21;23.63;;;4.15;;
22622;SDS011;11478;51.094;7.030;2023-02-01T17:49:47;26.42;;;5.55;;
22622;SDS011;11478;51.094;7.030;2023-02-01T17:52:21;21.33;;;4.00;;
22622;SDS011;11478;51.094;7.030;2023-02-01T17:54:51;26.05;;;4.18;;
22622;SDS011;11478;51.094;7.030;2023-02-01T17:57:18;30.15;;;8.02;;
22622;SDS011;11478;51.094;7.030;2023-02-01T17:59:44;19.52;;;4.18;;
22622;SDS011;11478;51.094;7.030;2023-02-01T18:02:31;24.48;;;4.70;;
22622;SDS011;11478;51.094;7.030;2023-02-01T18:04:57;21.83;;;4.20;;
22622;SDS011;11478;51.094;7.030;2023-02-01T18:07:24;16.42;;;3.97;;
22622;SDS011;11478;51.094;7.030;2023-02-01T18:09:49;21.10;;;3.97;;
22622;SDS011;11478;51.094;7.030;2023-02-01T18:12:19;18.50;;;3.97;;
22622;SDS011;11478;51.094;7.030;2023-02-01T18:14:47;19.67;;;3.95;;
22622;SDS011;11478;51.094;7.030;2023-02-01T18:17:13;26.40;;;3.72;;
22622;SDS011;11478;51.094;7.030;2023-02-01T18:19:40;20.70;;;3.88;;
22622;SDS011;11478;51.094;7.030;2023-02-01T18:22:16;20.02;;;4.38;;
22622;SDS011;11478;51.094;7.030;2023-02-01T18:24:45;21.58;;;3.95;;
22622;SDS011;11478;51.094;7.030;2023-02-01T18:27:17;23.05;;;4.38;;
22622;SDS011;11478;51.094;7.030;2023-02-01T18:29:43;20.33;;;4.13;;
22622;SDS011;11478;51.094;7.030;2023-02-01T18:32:09;15.73;;;3.38;;
22622;SDS011;11478;51.094;7.030;2023-02-01T18:34:35;19.90;;;3.72;;
22622;SDS011;11478;51.094;7.030;2023-02-01T18:37:01;23.20;;;4.07;;
22622;SDS011;11478;51.094;7.030;2023-02-01T18:39:27;20.75;;;3.90;;
22622;SDS011;11478;51.094;7.030;2023-02-01T18:41:52;23.83;;;4.00;;
22622;SDS011;11478;51.094;7.030;2023-02-01T18:44:18;19.35;;;4.13;;
22622;SDS011;11478;51.094;7.030;2023-02-01T18:46:44;22.48;;;4.38;;
22622;SDS011;11478;51.094;7.030;2023-02-01T18:49:10;18.42;;;3.85;;
22622;SDS011;11478;51.094;7.030;2023-02-01T18:51:38;30.98;;;4.15;;
22622;SDS011;11478;51.094;7.030;2023-02-01T18:54:03;28.23;;;4.97;;
22622;SDS011;11478;51.094;7.030;2023-02-01T18:56:31;21.35;;;3.67;;
22622;SDS011;11478;51.094;7.030;2023-02-01T18:58:57;21.08;;;4.00;;
22622;SDS011;11478;51.094;7.030;2023-02-01T19:01:25;21.88;;;4.22;;
22622;SDS011;11478;51.094;7.030;2023-02-01T19:03:51;19.60;;;4.30;;
22622;SDS011;11478;51.094;7.030;2023-02-01T19:06:17;26.15;;;7.30;;
22622;SDS011;11478;51.094;7.030;2023-02-01T19:08:46;29.40;;;8.10;;
22622;SDS011;11478;51.094;7.030;2023-02-01T19:11:13;25.02;;;4.90;;
22622;SDS011;11478;51.094;7.030;2023-02-01T19:13:40;26.77;;;5.50;;
22622;SDS011;11478;51.094;7.030;2023-02-01T19:16:07;29.20;;;9.35;;
22622;SDS011;11478;51.094;7.030;2023-02-01T19:18:34;22.20;;;5.03;;
22622;SDS011;11478;51.094;7.030;2023-02-01T19:21:06;26.40;;;5.10;;
22622;SDS011;11478;51.094;7.030;2023-02-01T19:23:33;19.05;;;4.75;;
22622;SDS011;11478;51.094;7.030;2023-02-01T19:26:02;25.40;;;5.75;;
22622;SDS011;11478;51.094;7.030;2023-02-01T19:28:28;29.40;;;7.25;;